createdAt,value
2018-08-22T00:01:11.437Z,18.40
2018-08-22T00:03:39.848Z,18.70
2018-08-22T00:06:08.286Z,18.10
2018-08-22T00:08:42.648Z,17.80
2018-08-22T00:11:11.612Z,17.60
2018-08-22T00:13:40.060Z,17.60
2018-08-22T00:16:08.498Z,17.80
2018-08-22T00:18:36.985Z,18.40
2018-08-22T00:21:05.414Z,18.80
2018-08-22T00:23:33.786Z,18.60
2018-08-22T00:26:02.182Z,18.50
2018-08-22T00:28:30.633Z,18.90
2018-08-22T00:30:59.159Z,18.80
2018-08-22T00:33:27.579Z,19.00
2018-08-22T00:35:55.894Z,19.10
2018-08-22T00:38:24.371Z,19.10
2018-08-22T00:40:52.784Z,19.30
2018-08-22T00:43:21.182Z,18.80
2018-08-22T00:45:49.722Z,18.70
2018-08-22T00:48:18.116Z,18.90
2018-08-22T00:50:46.575Z,18.60
2018-08-22T00:53:14.993Z,18.70
2018-08-22T00:55:43.345Z,18.70
2018-08-22T00:58:12.861Z,18.10
2018-08-22T01:00:41.300Z,17.50
2018-08-22T01:03:09.741Z,17.20
2018-08-22T01:05:38.157Z,17.40
2018-08-22T01:08:06.589Z,17.50
2018-08-22T01:10:35.046Z,17.50
2018-08-22T01:13:03.461Z,18.00
2018-08-22T01:15:31.947Z,18.20
2018-08-22T01:18:00.417Z,18.00
2018-08-22T01:20:29.062Z,17.70
2018-08-22T01:22:57.521Z,17.80
2018-08-22T01:25:25.929Z,18.10
2018-08-22T01:27:54.302Z,17.60
2018-08-22T01:30:22.719Z,17.50
2018-08-22T01:32:51.141Z,17.60
2018-08-22T01:35:23.546Z,17.40
2018-08-22T01:37:51.964Z,17.60
2018-08-22T01:40:20.369Z,17.90
2018-08-22T01:42:48.805Z,18.10
2018-08-22T01:45:17.296Z,18.30
2018-08-22T01:47:45.703Z,17.90
2018-08-22T01:50:14.119Z,17.60
2018-08-22T01:52:42.524Z,17.80
2018-08-22T01:55:10.905Z,18.10
2018-08-22T01:57:39.332Z,18.00
2018-08-22T02:00:08.855Z,17.50
2018-08-22T02:02:37.366Z,16.80
2018-08-22T02:05:05.843Z,16.50
2018-08-22T02:07:34.443Z,16.40
2018-08-22T02:10:02.813Z,16.40
2018-08-22T02:12:31.098Z,16.80
2018-08-22T02:14:59.521Z,17.30
2018-08-22T02:17:27.993Z,17.20
2018-08-22T02:19:56.500Z,16.70
2018-08-22T02:22:24.914Z,17.00
2018-08-22T02:24:53.288Z,17.30
2018-08-22T02:27:21.683Z,17.80
2018-08-22T02:29:50.142Z,17.50
2018-08-22T02:32:18.574Z,16.70
2018-08-22T02:34:46.891Z,16.50
2018-08-22T02:37:15.300Z,16.30
2018-08-22T02:39:43.727Z,16.40
2018-08-22T02:42:12.111Z,16.10
2018-08-22T02:44:40.633Z,16.10
2018-08-22T02:47:09.102Z,16.50
2018-08-22T02:49:37.511Z,16.20
2018-08-22T02:52:05.910Z,16.20
2018-08-22T02:54:34.288Z,16.70
2018-08-22T02:57:02.743Z,17.10
2018-08-22T02:59:31.139Z,17.30
2018-08-22T03:01:59.507Z,16.90
2018-08-22T03:04:27.870Z,16.70
2018-08-22T03:06:56.359Z,17.00
2018-08-22T03:09:24.783Z,17.00
2018-08-22T03:11:53.223Z,16.60
2018-08-22T03:14:21.686Z,16.20
2018-08-22T03:16:50.068Z,16.40
2018-08-22T03:19:18.548Z,16.50
2018-08-22T03:21:47.077Z,16.10
2018-08-22T03:24:15.559Z,15.80
2018-08-22T03:26:44.031Z,15.60
2018-08-22T03:29:12.542Z,16.20
2018-08-22T03:31:41.022Z,16.20
2018-08-22T03:34:09.491Z,16.50
2018-08-22T03:36:37.931Z,16.70
2018-08-22T03:39:07.463Z,17.10
2018-08-22T03:41:35.947Z,16.50
2018-08-22T03:44:04.326Z,15.80
2018-08-22T03:46:32.787Z,15.40
2018-08-22T03:49:01.242Z,15.40
2018-08-22T03:51:29.726Z,15.40
2018-08-22T03:53:58.251Z,15.80
2018-08-22T03:56:26.684Z,16.20
2018-08-22T03:58:55.230Z,16.60
2018-08-22T04:01:23.646Z,17.00
2018-08-22T04:03:52.135Z,17.30
2018-08-22T04:06:20.650Z,16.30
2018-08-22T04:08:49.029Z,15.70
2018-08-22T04:11:17.419Z,15.40
2018-08-22T04:13:45.827Z,15.40
2018-08-22T04:16:14.259Z,15.60
2018-08-22T04:18:42.766Z,15.60
2018-08-22T04:21:11.218Z,16.30
2018-08-22T04:23:39.669Z,16.80
2018-08-22T04:26:08.087Z,17.00
2018-08-22T04:28:36.583Z,16.30
2018-08-22T04:31:04.906Z,15.60
2018-08-22T04:33:33.281Z,15.50
2018-08-22T04:36:01.732Z,15.40
2018-08-22T04:38:30.125Z,15.70
2018-08-22T04:40:58.548Z,16.00
2018-08-22T04:43:26.943Z,16.20
2018-08-22T04:45:55.314Z,16.60
2018-08-22T04:48:23.744Z,16.70
2018-08-22T04:50:52.239Z,16.60
2018-08-22T04:53:20.698Z,16.50
2018-08-22T04:55:49.146Z,16.50
2018-08-22T04:58:17.580Z,16.00
2018-08-22T05:00:46.040Z,16.40
2018-08-22T05:03:14.443Z,16.40
2018-08-22T05:05:42.919Z,16.50
2018-08-22T05:08:11.430Z,16.80
2018-08-22T05:10:39.983Z,17.10
2018-08-22T05:13:08.310Z,17.20
2018-08-22T05:15:36.745Z,17.30
2018-08-22T05:18:05.791Z,17.40
2018-08-22T05:20:34.334Z,17.50
2018-08-22T05:23:02.863Z,17.50
2018-08-22T05:25:31.428Z,17.50
2018-08-22T05:27:59.946Z,17.40
2018-08-22T05:30:28.300Z,17.50
2018-08-22T05:32:56.782Z,17.50
2018-08-22T05:35:25.268Z,17.80
2018-08-22T05:37:53.690Z,17.00
2018-08-22T05:40:22.281Z,17.10
2018-08-22T05:42:50.763Z,16.60
2018-08-22T05:45:19.188Z,16.60
2018-08-22T05:47:47.674Z,16.60
2018-08-22T05:50:16.139Z,16.70
2018-08-22T05:52:44.522Z,17.10
2018-08-22T05:55:13.030Z,18.10
2018-08-22T05:57:41.475Z,18.40
2018-08-22T06:00:09.916Z,18.60
2018-08-22T06:02:38.479Z,19.10
2018-08-22T06:05:06.886Z,19.70
2018-08-22T06:07:35.305Z,20.30
2018-08-22T06:10:03.735Z,20.90
2018-08-22T06:12:32.094Z,20.50
2018-08-22T06:15:00.490Z,21.60
2018-08-22T06:17:28.927Z,22.30
2018-08-22T06:19:57.459Z,22.80
2018-08-22T06:22:25.926Z,23.00
2018-08-22T06:24:54.383Z,23.30
2018-08-22T06:27:22.840Z,23.50
2018-08-22T06:29:51.279Z,23.70
2018-08-22T06:32:19.711Z,23.80
2018-08-22T06:34:48.152Z,23.80
2018-08-22T06:37:16.650Z,24.10
2018-08-22T06:39:45.029Z,24.00
2018-08-22T06:42:13.474Z,24.60
2018-08-22T06:44:41.911Z,25.30
2018-08-22T06:47:10.455Z,25.30
2018-08-22T06:49:38.984Z,25.30
2018-08-22T06:52:07.482Z,25.20
2018-08-22T06:54:35.983Z,25.40
2018-08-22T06:57:04.422Z,26.00
2018-08-22T06:59:32.856Z,25.80
2018-08-22T07:02:01.216Z,26.10
2018-08-22T07:04:29.763Z,26.40
2018-08-22T07:06:58.243Z,26.30
2018-08-22T07:09:26.727Z,26.10
2018-08-22T07:11:55.223Z,26.30
2018-08-22T07:14:23.713Z,26.30
2018-08-22T07:16:52.226Z,26.30
2018-08-22T07:19:20.816Z,26.70
2018-08-22T07:21:49.262Z,27.10
2018-08-22T07:24:17.731Z,27.20
2018-08-22T07:26:46.229Z,26.70
2018-08-22T07:29:14.688Z,27.20
2018-08-22T07:31:43.118Z,27.70
2018-08-22T07:34:11.472Z,28.00
2018-08-22T07:36:39.822Z,28.30
2018-08-22T07:39:11.530Z,27.60
2018-08-22T07:41:39.987Z,27.80
2018-08-22T07:44:09.369Z,28.00
2018-08-22T07:46:37.816Z,28.20
2018-08-22T07:49:06.231Z,28.60
2018-08-22T07:51:34.636Z,28.10
2018-08-22T07:54:03.090Z,29.00
2018-08-22T07:56:31.614Z,28.80
2018-08-22T07:59:14.859Z,29.50
2018-08-22T08:01:43.282Z,28.70
2018-08-22T08:04:12.619Z,29.30
2018-08-22T08:06:41.510Z,29.50
2018-08-22T08:09:13.199Z,28.50
2018-08-22T08:11:41.706Z,27.80
2018-08-22T08:14:10.266Z,28.80
2018-08-22T08:16:38.742Z,29.70
2018-08-22T08:19:07.835Z,30.50
2018-08-22T08:21:36.414Z,30.30
2018-08-22T08:24:05.003Z,28.10
2018-08-22T08:26:33.454Z,28.80
2018-08-22T08:29:01.826Z,28.50
2018-08-22T08:31:34.240Z,28.60
2018-08-22T08:34:02.690Z,27.90
2018-08-22T08:36:31.137Z,28.70
2018-08-22T08:38:59.528Z,28.80
2018-08-22T08:41:28.030Z,29.50
2018-08-22T08:43:56.392Z,29.10
2018-08-22T08:46:24.844Z,27.80
2018-08-22T08:48:53.297Z,28.30
2018-08-22T08:51:21.742Z,28.30
2018-08-22T08:53:50.095Z,28.80
2018-08-22T08:56:18.550Z,28.80
2018-08-22T08:58:46.983Z,28.90
2018-08-22T09:01:15.548Z,29.80
2018-08-22T09:03:44.012Z,29.70
2018-08-22T09:06:12.680Z,31.10
2018-08-22T09:08:41.030Z,31.20
2018-08-22T09:11:09.474Z,31.50
2018-08-22T09:13:42.431Z,31.50
2018-08-22T09:16:11.216Z,30.10
2018-08-22T09:18:39.661Z,30.10
2018-08-22T09:21:08.154Z,31.10
2018-08-22T09:23:36.624Z,31.40
2018-08-22T09:26:05.072Z,31.30
2018-08-22T09:28:33.641Z,31.70
2018-08-22T09:31:02.089Z,31.50
2018-08-22T09:33:30.411Z,32.20
2018-08-22T09:35:58.840Z,32.40
2018-08-22T09:38:27.613Z,30.70
2018-08-22T09:40:55.980Z,29.00
2018-08-22T09:43:24.405Z,28.60
2018-08-22T09:45:52.860Z,29.30
2018-08-22T09:48:21.285Z,30.30
2018-08-22T09:50:49.741Z,31.00
2018-08-22T09:53:18.203Z,31.50
2018-08-22T09:55:46.614Z,31.90
2018-08-22T09:58:15.088Z,32.00
2018-08-22T10:00:48.886Z,30.70
2018-08-22T10:03:17.192Z,31.30
2018-08-22T10:05:45.691Z,32.40
2018-08-22T10:08:14.088Z,32.90
2018-08-22T10:10:42.525Z,33.00
2018-08-22T10:13:11.079Z,33.60
2018-08-22T10:15:41.181Z,32.10
2018-08-22T10:18:09.654Z,32.40
2018-08-22T10:20:38.246Z,30.60
2018-08-22T10:23:06.641Z,30.20
2018-08-22T10:25:35.057Z,30.50
2018-08-22T10:28:03.429Z,31.60
2018-08-22T10:30:31.887Z,33.50
2018-08-22T10:33:00.399Z,34.80
2018-08-22T10:35:28.778Z,35.60
2018-08-22T10:37:57.109Z,34.70
2018-08-22T10:40:25.429Z,35.60
2018-08-22T10:42:53.874Z,35.70
2018-08-22T10:45:22.266Z,36.40
2018-08-22T10:47:50.759Z,37.30
2018-08-22T10:50:19.120Z,38.30
2018-08-22T10:52:47.523Z,39.10
2018-08-22T10:55:15.975Z,38.60
2018-08-22T10:57:44.398Z,38.00
2018-08-22T11:00:12.766Z,35.50
2018-08-22T11:02:41.174Z,34.10
2018-08-22T11:05:09.585Z,34.80
2018-08-22T11:07:37.967Z,35.90
2018-08-22T11:10:06.374Z,35.60
2018-08-22T11:12:34.852Z,37.20
2018-08-22T11:15:03.371Z,37.00
2018-08-22T11:17:31.938Z,38.70
2018-08-22T11:20:00.401Z,38.80
2018-08-22T11:22:40.017Z,39.80
2018-08-22T11:25:19.780Z,40.40
2018-08-22T11:27:59.448Z,37.80
2018-08-22T11:30:38.994Z,36.70
2018-08-22T11:33:18.682Z,36.20
2018-08-22T11:35:45.964Z,36.70
2018-08-22T11:38:14.427Z,38.30
2018-08-22T11:40:42.803Z,40.00
2018-08-22T11:43:11.175Z,40.00
2018-08-22T11:45:39.615Z,40.80
2018-08-22T11:48:07.976Z,38.70
2018-08-22T11:50:36.367Z,39.60
2018-08-22T11:53:04.892Z,38.90
2018-08-22T11:55:33.296Z,36.70
2018-08-22T11:58:01.657Z,37.20
2018-08-22T12:00:30.085Z,36.80
2018-08-22T12:02:58.668Z,36.50
2018-08-22T12:05:27.199Z,38.20
2018-08-22T12:07:55.682Z,39.20
2018-08-22T12:10:28.364Z,37.60
2018-08-22T12:12:56.801Z,38.60
2018-08-22T12:15:25.232Z,40.20
2018-08-22T12:17:53.780Z,38.10
2018-08-22T12:20:22.263Z,39.60
2018-08-22T12:22:50.719Z,40.20
2018-08-22T12:25:19.019Z,41.10
2018-08-22T12:27:47.471Z,36.70
2018-08-22T12:30:15.761Z,36.00
2018-08-22T12:32:44.205Z,38.30
2018-08-22T12:35:12.605Z,38.70
2018-08-22T12:37:41.027Z,38.50
2018-08-22T12:40:10.234Z,38.10
2018-08-22T12:42:39.209Z,39.50
2018-08-22T12:45:08.283Z,38.20
2018-08-22T12:47:36.769Z,38.90
2018-08-22T12:50:05.343Z,38.10
2018-08-22T12:52:33.720Z,37.80
2018-08-22T12:55:02.117Z,38.70
2018-08-22T12:57:30.522Z,37.70
2018-08-22T12:59:58.862Z,35.70
2018-08-22T13:02:27.356Z,36.60
2018-08-22T13:04:55.796Z,36.80
2018-08-22T13:07:24.268Z,35.80
2018-08-22T13:09:52.621Z,36.00
2018-08-22T13:12:20.955Z,35.60
2018-08-22T13:14:49.359Z,35.40
2018-08-22T13:17:17.835Z,35.20
2018-08-22T13:19:46.197Z,35.10
2018-08-22T13:22:14.675Z,35.00
2018-08-22T13:24:43.091Z,34.70
2018-08-22T13:27:11.403Z,34.50
2018-08-22T13:29:39.810Z,34.40
2018-08-22T13:32:08.657Z,34.10
2018-08-22T13:34:37.071Z,34.40
2018-08-22T13:37:05.474Z,34.00
2018-08-22T13:39:33.885Z,34.20
2018-08-22T13:42:02.389Z,34.00
2018-08-22T13:44:30.735Z,34.10
2018-08-22T13:46:59.202Z,34.20
2018-08-22T13:49:27.578Z,34.40
2018-08-22T13:51:55.946Z,34.50
2018-08-22T13:54:24.336Z,34.40
2018-08-22T13:56:52.659Z,34.30
2018-08-22T13:59:21.120Z,34.40
2018-08-22T14:01:49.727Z,34.00
2018-08-22T14:04:17.943Z,33.90
2018-08-22T14:06:46.661Z,34.00
2018-08-22T14:09:15.023Z,33.70
2018-08-22T14:11:43.352Z,33.60
2018-08-22T14:14:11.903Z,33.70
2018-08-22T14:16:40.267Z,33.80
2018-08-22T14:19:08.767Z,33.70
2018-08-22T14:21:37.194Z,33.90
2018-08-22T14:24:05.833Z,33.90
2018-08-22T14:26:34.286Z,33.90
2018-08-22T14:29:02.752Z,33.90
2018-08-22T14:31:31.222Z,33.30
2018-08-22T14:33:59.534Z,33.10
2018-08-22T14:36:27.940Z,33.20
2018-08-22T14:38:56.345Z,33.20
2018-08-22T14:41:24.858Z,33.60
2018-08-22T14:43:53.348Z,33.90
2018-08-22T14:46:21.823Z,34.10
2018-08-22T14:48:50.340Z,34.10
2018-08-22T14:51:18.764Z,33.90
2018-08-22T14:53:47.217Z,33.40
2018-08-22T14:56:15.800Z,33.50
2018-08-22T14:58:44.283Z,33.30
2018-08-22T15:01:12.692Z,33.60
2018-08-22T15:03:41.085Z,33.70
2018-08-22T15:06:09.405Z,33.70
2018-08-22T15:08:37.838Z,33.60
2018-08-22T15:11:06.360Z,33.10
2018-08-22T15:13:34.992Z,33.30
2018-08-22T15:16:03.438Z,33.40
2018-08-22T15:18:31.903Z,33.80
2018-08-22T15:21:00.471Z,33.90
2018-08-22T15:23:28.965Z,33.60
2018-08-22T15:25:57.415Z,33.40
2018-08-22T15:28:25.818Z,33.40
2018-08-22T15:30:54.303Z,33.20
2018-08-22T15:33:22.729Z,33.10
2018-08-22T15:35:51.301Z,33.30
2018-08-22T15:38:20.440Z,33.20
2018-08-22T15:40:49.044Z,32.70
2018-08-22T15:43:17.431Z,32.40
2018-08-22T15:45:45.876Z,32.30
2018-08-22T15:48:14.255Z,32.10
2018-08-22T15:50:42.683Z,32.00
2018-08-22T15:53:11.186Z,32.20
2018-08-22T15:55:39.590Z,32.30
2018-08-22T15:58:08.052Z,32.40
2018-08-22T16:00:55.257Z,31.80
2018-08-22T16:03:24.955Z,31.50
2018-08-22T16:05:54.395Z,32.00
2018-08-22T16:08:24.172Z,32.20
2018-08-22T16:10:52.594Z,32.20
2018-08-22T16:13:26.266Z,32.30
2018-08-22T16:15:56.410Z,32.30
2018-08-22T16:18:24.904Z,32.30
2018-08-22T16:20:57.815Z,32.10
2018-08-22T16:23:27.887Z,32.10
2018-08-22T16:25:57.841Z,32.10
2018-08-22T16:28:26.968Z,32.00
2018-08-22T16:30:57.508Z,31.90
2018-08-22T16:33:25.803Z,31.90
2018-08-22T16:35:54.196Z,31.60
2018-08-22T16:38:22.631Z,31.50
2018-08-22T16:40:53.011Z,31.70
2018-08-22T16:43:38.064Z,31.70
2018-08-22T16:46:07.667Z,31.70
2018-08-22T16:48:36.319Z,31.70
2018-08-22T16:51:04.699Z,31.70
2018-08-22T16:53:33.615Z,31.60
2018-08-22T16:56:02.020Z,31.60
2018-08-22T16:58:30.532Z,31.60
2018-08-22T17:00:58.972Z,31.50
2018-08-22T17:03:27.306Z,31.60
2018-08-22T17:06:00.627Z,31.60
2018-08-22T17:08:29.369Z,31.50
2018-08-22T17:11:02.904Z,31.50
2018-08-22T17:13:42.788Z,31.40
2018-08-22T17:16:11.294Z,31.40
2018-08-22T17:18:39.711Z,31.40
2018-08-22T17:21:08.528Z,31.20
2018-08-22T17:23:36.908Z,31.20
2018-08-22T17:26:05.666Z,30.90
2018-08-22T17:28:39.283Z,30.70
2018-08-22T17:31:08.439Z,30.70
2018-08-22T17:33:42.073Z,30.60
2018-08-22T17:36:11.914Z,30.40
2018-08-22T17:38:44.134Z,30.50
2018-08-22T17:41:12.701Z,30.40
2018-08-22T17:43:55.321Z,30.30
2018-08-22T17:46:28.534Z,30.20
2018-08-22T17:48:57.343Z,30.20
2018-08-22T17:51:25.851Z,30.00
2018-08-22T17:53:54.379Z,30.00
2018-08-22T17:56:24.163Z,29.90
2018-08-22T17:58:53.519Z,29.70
2018-08-22T18:01:22.716Z,29.60
2018-08-22T18:03:51.827Z,29.50
2018-08-22T18:06:20.236Z,29.50
2018-08-22T18:08:48.670Z,29.40
2018-08-22T18:11:17.527Z,29.40
2018-08-22T18:13:46.058Z,29.40
2018-08-22T18:16:14.415Z,29.30
2018-08-22T18:18:42.866Z,29.20
2018-08-22T18:21:11.330Z,29.00
2018-08-22T18:23:44.006Z,28.80
2018-08-22T18:26:12.439Z,28.70
2018-08-22T18:28:41.397Z,28.70
2018-08-22T18:31:09.860Z,28.70
2018-08-22T18:33:50.663Z,28.60
2018-08-22T18:36:19.145Z,28.30
2018-08-22T18:38:59.890Z,28.20
2018-08-22T18:41:28.346Z,28.00
2018-08-22T18:43:56.851Z,27.90
2018-08-22T18:46:26.524Z,27.80
2018-08-22T18:48:54.987Z,27.70
2018-08-22T18:51:23.443Z,27.90
2018-08-22T18:53:51.881Z,27.90
2018-08-22T18:56:21.705Z,27.60
2018-08-22T18:58:50.918Z,27.30
2018-08-22T19:01:19.622Z,27.20
2018-08-22T19:03:48.071Z,27.00
2018-08-22T19:06:16.626Z,27.10
2018-08-22T19:08:45.151Z,27.00
2018-08-22T19:11:13.659Z,26.90
2018-08-22T19:13:42.019Z,26.60
2018-08-22T19:16:11.306Z,26.10
2018-08-22T19:18:40.013Z,25.80
2018-08-22T19:21:09.707Z,25.60
2018-08-22T19:23:38.240Z,25.60
2018-08-22T19:26:07.372Z,25.60
2018-08-22T19:28:52.410Z,25.90
2018-08-22T19:31:20.786Z,25.60
2018-08-22T19:33:49.101Z,25.40
2018-08-22T19:36:17.532Z,25.00
2018-08-22T19:38:45.978Z,25.10
2018-08-22T19:41:23.706Z,24.80
2018-08-22T19:43:52.272Z,25.10
2018-08-22T19:46:20.672Z,24.80
2018-08-22T19:48:49.143Z,24.80
2018-08-22T19:51:17.584Z,24.30
2018-08-22T19:53:59.243Z,24.00
2018-08-22T19:56:28.461Z,23.90
2018-08-22T19:58:56.850Z,24.10
2018-08-22T20:01:25.230Z,24.00
2018-08-22T20:03:56.066Z,24.00
2018-08-22T20:06:25.335Z,24.00
2018-08-22T20:08:55.638Z,23.80
2018-08-22T20:11:25.067Z,23.70
2018-08-22T20:13:59.587Z,23.60
2018-08-22T20:16:27.933Z,23.50
2018-08-22T20:18:57.527Z,23.60
2018-08-22T20:21:33.967Z,23.30
2018-08-22T20:24:03.577Z,23.50
2018-08-22T20:26:32.458Z,23.30
2018-08-22T20:29:02.175Z,23.50
2018-08-22T20:31:30.657Z,23.40
2018-08-22T20:34:03.987Z,23.60
2018-08-22T20:36:32.489Z,23.70
2018-08-22T20:39:05.031Z,23.90
2018-08-22T20:41:33.883Z,23.50
2018-08-22T20:44:02.271Z,23.10
2018-08-22T20:46:30.636Z,22.80
2018-08-22T20:48:58.994Z,22.70
2018-08-22T20:51:28.791Z,22.80
2018-08-22T20:54:01.452Z,22.90
2018-08-22T20:56:30.624Z,22.80
2018-08-22T20:58:58.990Z,22.80
2018-08-22T21:01:27.394Z,22.70
2018-08-22T21:03:55.735Z,22.60
2018-08-22T21:06:24.133Z,22.30
2018-08-22T21:08:52.558Z,22.20
2018-08-22T21:11:20.955Z,22.20
2018-08-22T21:13:49.476Z,22.10
2018-08-22T21:16:17.854Z,22.40
2018-08-22T21:18:46.304Z,22.80
2018-08-22T21:21:21.730Z,22.50
2018-08-22T21:23:50.232Z,22.20
2018-08-22T21:26:51.527Z,22.00
2018-08-22T21:29:20.147Z,22.00
2018-08-22T21:31:48.645Z,21.90
2018-08-22T21:34:21.514Z,22.00
2018-08-22T21:36:49.955Z,21.70
2018-08-22T21:39:23.706Z,21.40
2018-08-22T21:41:52.183Z,21.80
2018-08-22T21:44:21.784Z,21.70
2018-08-22T21:46:57.649Z,21.60
2018-08-22T21:49:26.110Z,21.30
2018-08-22T21:51:57.388Z,21.00
2018-08-22T21:54:25.863Z,21.30
2018-08-22T21:56:54.314Z,21.60
2018-08-22T21:59:22.786Z,21.40
2018-08-22T22:01:56.423Z,21.60
2018-08-22T22:04:29.932Z,21.30
2018-08-22T22:06:58.383Z,21.20
2018-08-22T22:09:26.762Z,21.00
2018-08-22T22:11:57.403Z,21.40
2018-08-22T22:14:26.694Z,21.50
2018-08-22T22:16:56.716Z,21.50
2018-08-22T22:19:26.767Z,21.90
2018-08-22T22:21:55.199Z,22.10
2018-08-22T22:24:23.599Z,21.40
2018-08-22T22:26:52.050Z,21.30
2018-08-22T22:29:23.623Z,21.50
2018-08-22T22:31:52.098Z,21.90
2018-08-22T22:34:20.566Z,22.20
2018-08-22T22:36:48.931Z,22.30
2018-08-22T22:39:35.674Z,22.40
2018-08-22T22:42:14.199Z,22.50
2018-08-22T22:44:44.510Z,22.30
2018-08-22T22:47:18.230Z,21.80
2018-08-22T22:49:46.642Z,21.40
2018-08-22T22:52:31.644Z,20.90
2018-08-22T22:55:01.300Z,20.80
2018-08-22T22:57:30.324Z,21.30
2018-08-22T23:00:00.183Z,21.60
2018-08-22T23:02:29.063Z,21.60
2018-08-22T23:04:58.095Z,20.80
2018-08-22T23:07:29.570Z,20.60
2018-08-22T23:09:59.106Z,20.90
2018-08-22T23:12:33.788Z,21.20
2018-08-22T23:15:02.090Z,21.10
2018-08-22T23:17:30.506Z,20.40
2018-08-22T23:20:14.331Z,20.30
2018-08-22T23:22:42.834Z,20.40
2018-08-22T23:25:11.732Z,21.10
2018-08-22T23:27:40.629Z,21.20
2018-08-22T23:30:09.344Z,20.70
2018-08-22T23:32:38.845Z,20.00
2018-08-22T23:35:20.434Z,20.10
2018-08-22T23:37:53.727Z,20.30
2018-08-22T23:40:23.292Z,19.70
2018-08-22T23:42:51.801Z,19.60
2018-08-22T23:45:20.323Z,20.00
2018-08-22T23:47:48.785Z,19.70
2018-08-22T23:50:17.182Z,19.40
2018-08-22T23:52:48.458Z,19.90
2018-08-22T23:55:17.639Z,20.40
2018-08-22T23:57:46.079Z,20.90
